Portada
METAR-TAF:

METAR-TAF

Aeroports :

Sparta Community Airport (Hunter Field)

Sparta, Illinois, Estats Units d'Amèrica

latitud: 38-08-56N, longitud: 089-41-55W, altitud: 164 m

Observació

L'informe es va fer fa 13 minuts, a les 22:15 UTC
Vent 6 kt del Sud/Sud-Oest
Temperatura 13°C
Humitat 100%
Pressió 1015 hPa
Visibilitat: 4.8 km
Cel cobert a una alçada de 500 ft
boirina

METAR: KSAR 212215Z AUTO 20006KT 3SM BR OVC005 13/13 A2997 RMK AO2 T01300130

Hora: 16:28 (22:28 UTC)


TAF: manca

Observacions i pronòstics meteorològics de més de 4000 aeroports (METAR i TAF).

Les estacions disponibles són els punts grocs i vermells al mapa.

Posi el ratolí al punt desitjat per veure el nom de l'estació.

Feu clic per veure les observacions i els pronòstics meteorològics.

Per canviar el mapa: feu clic els botons verds amb una creu de color negre per apropar; al botó verd amb un guió per allunyar la imatge; o en les fletxes verdes per a mapes adjacents.


METAR-TAF: